Time;durP1;ratioP1;P1;durP2;ratioP2;P2;SDS_P1;SDS_P2;PMS_P1;PMS_P2;Temp;Humidity;BMP_temperature;BMP_pressure;BME280_temperature;BME280_humidity;BME280_pressure;Samples;Min_cycle;Max_cycle;Signal;HPM_P1;HPM_P2
2022/07/02 00:00:06;;;;;;;4.30;1.80;;;;;;;16.18;72.88;100143.63;344701;28;1078;-72
2022/07/02 00:00:18;;;;;;;4.20;1.70;;;;;;;16.17;73.41;100151.56;345188;28;1147;-73
2022/07/02 00:00:35;;;;;;;3.55;1.67;;;;;;;16.20;73.30;100143.56;344608;28;1156;-73
2022/07/02 00:00:48;;;;;;;2.95;1.70;;;;;;;16.18;73.04;100145.41;346313;28;864;-73
2022/07/02 00:00:59;;;;;;;3.70;1.70;;;;;;;16.18;73.04;100145.41;345996;28;1331;-73
2022/07/02 00:01:17;;;;;;;4.35;1.70;;;;;;;16.18;73.13;100148.88;346203;28;1039;-73
2022/07/02 00:01:29;;;;;;;5.82;1.75;;;;;;;16.19;73.02;100152.34;346314;28;1086;-72
2022/07/02 00:01:43;;;;;;;5.40;1.80;;;;;;;16.16;72.71;100152.50;346385;28;1058;-72
2022/07/02 00:01:55;;;;;;;5.15;1.90;;;;;;;16.17;72.66;100148.94;346384;28;1062;-72
2022/07/02 00:02:08;;;;;;;4.68;1.80;;;;;;;16.17;72.79;100148.94;346361;28;1090;-73
2022/07/02 00:02:21;;;;;;;2.97;1.70;;;;;;;16.15;72.71;100145.56;345344;28;1920;-72
2022/07/02 00:02:36;;;;;;;3.15;1.70;;;;;;;16.16;72.71;100147.25;345911;28;991;-72
2022/07/02 00:02:51;;;;;;;3.35;1.70;;;;;;;16.15;73.14;100150.78;345847;28;1358;-73
2022/07/02 00:03:04;;;;;;;2.10;1.73;;;;;;;16.13;73.42;100144.78;344952;28;2178;-73
2022/07/02 00:03:33;;;;;;;3.00;1.80;;;;;;;16.12;73.22;100146.56;346174;28;1071;-72
2022/07/02 00:03:56;;;;;;;4.13;1.80;;;;;;;16.11;73.02;100154.50;345959;28;1180;-72
2022/07/02 00:04:12;;;;;;;4.25;1.80;;;;;;;16.14;72.81;100149.09;345851;28;1415;-73
2022/07/02 00:04:33;;;;;;;3.65;1.73;;;;;;;16.16;72.34;100152.50;346109;28;1075;-72
2022/07/02 00:04:57;;;;;;;3.40;1.60;;;;;;;16.19;72.59;100152.34;346431;28;842;-73
2022/07/02 00:05:13;;;;;;;3.80;1.70;;;;;;;16.18;72.87;100150.66;345968;28;1068;-72
2022/07/02 00:05:30;;;;;;;2.50;1.75;;;;;;;16.19;72.42;100149.72;346622;28;855;-73
2022/07/02 00:05:47;;;;;;;3.38;1.80;;;;;;;16.21;72.26;100155.75;346018;28;1194;-72
2022/07/02 00:06:01;;;;;;;2.40;1.70;;;;;;;16.21;72.24;100155.75;346330;28;1349;-73
2022/07/02 00:06:14;;;;;;;2.63;1.80;;;;;;;16.21;72.30;100155.75;346047;28;1050;-72
2022/07/02 00:06:29;;;;;;;3.38;2.00;;;;;;;16.22;72.47;100156.59;346300;28;1610;-73
2022/07/02 00:06:43;;;;;;;3.00;2.10;;;;;;;16.21;72.60;100162.78;345738;28;1543;-73
2022/07/02 00:06:55;;;;;;;3.45;2.00;;;;;;;16.20;72.59;100156.69;345921;28;1075;-73
2022/07/02 00:07:07;;;;;;;3.70;2.00;;;;;;;16.19;72.55;100152.34;344669;28;1198;-73
2022/07/02 00:07:19;;;;;;;3.47;2.10;;;;;;;16.19;72.69;100152.34;344590;28;1250;-72
2022/07/02 00:07:32;;;;;;;3.33;2.20;;;;;;;16.19;72.88;100154.97;344650;28;1059;-73
2022/07/02 00:07:44;;;;;;;3.08;2.20;;;;;;;16.20;72.77;100156.69;344652;28;1136;-72
2022/07/02 00:07:56;;;;;;;2.70;2.05;;;;;;;16.18;72.65;100155.91;344481;28;1291;-73
2022/07/02 00:08:09;;;;;;;2.90;1.85;;;;;;;16.18;72.33;100156.75;344843;28;1087;-72
2022/07/02 00:08:23;;;;;;;2.63;1.80;;;;;;;16.20;72.43;100156.69;344267;28;1906;-73
2022/07/02 00:08:35;;;;;;;2.90;2.00;;;;;;;16.20;72.39;100161.94;344595;28;1100;-73
2022/07/02 00:08:48;;;;;;;2.58;2.03;;;;;;;16.20;72.43;100164.56;344560;28;901;-73
2022/07/02 00:09:01;;;;;;;2.63;2.10;;;;;;;16.18;72.91;100155.91;344213;28;1214;-73
2022/07/02 00:09:14;;;;;;;3.45;2.05;;;;;;;16.16;72.97;100157.75;345746;28;1067;-73
2022/07/02 00:09:27;;;;;;;3.63;2.25;;;;;;;16.16;73.06;100157.75;346072;28;1202;-73
2022/07/02 00:09:39;;;;;;;5.20;2.35;;;;;;;16.16;73.44;100158.59;346214;28;1078;-72
2022/07/02 00:09:54;;;;;;;5.60;2.22;;;;;;;16.16;73.18;100153.34;345922;28;1066;-73
2022/07/02 00:10:06;;;;;;;5.20;2.08;;;;;;;16.17;73.09;100160.28;346268;28;1082;-73
2022/07/02 00:10:19;;;;;;;3.10;1.83;;;;;;;16.16;72.82;100160.38;344655;28;1138;-73
2022/07/02 00:10:32;;;;;;;2.25;1.70;;;;;;;16.16;72.65;100153.34;346136;28;1190;-73
2022/07/02 00:10:46;;;;;;;3.70;1.77;;;;;;;16.17;72.67;100154.19;345932;28;1167;-73
2022/07/02 00:10:59;;;;;;;5.03;1.90;;;;;;;16.20;72.77;100155.81;346080;28;1590;-73
2022/07/02 00:11:15;;;;;;;4.40;2.05;;;;;;;16.18;72.53;100155.91;346281;28;1450;-73
2022/07/02 00:11:27;;;;;;;2.92;2.00;;;;;;;16.18;72.62;100161.16;346218;28;1026;-73
2022/07/02 00:11:41;;;;;;;3.42;2.00;;;;;;;16.18;72.85;100161.16;346501;28;732;-72
2022/07/02 00:11:57;;;;;;;3.67;2.10;;;;;;;16.18;73.03;100155.91;346081;28;1285;-73
2022/07/02 00:12:13;;;;;;;3.42;2.30;;;;;;;16.18;72.91;100153.28;346096;28;1246;-72
2022/07/02 00:12:27;;;;;;;4.30;2.40;;;;;;;16.17;73.06;100154.19;345510;28;1653;-73
2022/07/02 00:12:40;;;;;;;3.92;2.13;;;;;;;16.18;73.02;100155.91;346178;28;1120;-72
2022/07/02 00:12:52;;;;;;;2.67;1.80;;;;;;;16.18;72.95;100155.91;346270;28;1379;-73
2022/07/02 00:13:05;;;;;;;3.30;1.75;;;;;;;16.19;72.89;100157.59;346068;28;1055;-73
2022/07/02 00:13:19;;;;;;;3.42;1.90;;;;;;;16.18;72.81;100150.66;346639;28;754;-73
2022/07/02 00:13:31;;;;;;;4.80;2.40;;;;;;;16.19;72.85;100157.59;346166;28;1144;-73
2022/07/02 00:13:43;;;;;;;3.70;2.30;;;;;;;16.17;72.87;100160.28;344859;28;1111;-73
2022/07/02 00:13:56;;;;;;;3.17;2.10;;;;;;;16.16;73.00;100158.59;345898;28;1059;-73
2022/07/02 00:14:09;;;;;;;3.53;2.10;;;;;;;16.16;72.80;100155.13;345963;28;1343;-73
2022/07/02 00:14:21;;;;;;;3.75;2.00;;;;;;;16.16;72.63;100157.75;345972;28;1079;-73
2022/07/02 00:14:33;;;;;;;3.38;1.95;;;;;;;16.16;72.36;100153.34;345856;28;1132;-73
2022/07/02 00:14:50;;;;;;;4.60;2.00;;;;;;;16.15;72.20;100156.03;345854;28;1171;-73
2022/07/02 00:15:02;;;;;;;4.93;2.05;;;;;;;16.15;71.95;100158.66;345731;28;1160;-73
2022/07/02 00:15:16;;;;;;;4.75;2.10;;;;;;;16.14;72.24;100160.44;345734;28;1021;-73
2022/07/02 00:15:28;;;;;;;3.78;2.00;;;;;;;16.15;72.11;100161.28;345780;28;1225;-73
2022/07/02 00:15:40;;;;;;;4.22;1.90;;;;;;;16.16;71.94;100160.38;344766;28;1087;-73
2022/07/02 00:15:53;;;;;;;4.28;1.95;;;;;;;16.17;71.95;100156.81;346139;28;1043;-73
2022/07/02 00:16:09;;;;;;;4.10;2.05;;;;;;;16.17;71.92;100154.19;346294;28;1188;-73
2022/07/02 00:16:25;;;;;;;3.58;2.10;;;;;;;16.17;72.58;100154.19;346190;28;1032;-73
2022/07/02 00:16:38;;;;;;;5.43;2.20;;;;;;;16.16;73.02;100158.59;346086;28;1075;-73
2022/07/02 00:16:51;;;;;;;6.30;2.30;;;;;;;16.15;72.93;100156.03;344325;28;1892;-72
2022/07/02 00:17:04;;;;;;;5.63;2.20;;;;;;;16.14;73.11;100160.44;344422;28;1146;-73
2022/07/02 00:17:17;;;;;;;3.47;2.27;;;;;;;16.09;72.88;100153.72;343174;28;1237;-73
2022/07/02 00:17:29;;;;;;;4.50;2.50;;;;;;;16.05;72.71;100155.63;342374;28;2083;-73
2022/07/02 00:17:41;;;;;;;5.68;2.70;;;;;;;16.02;72.64;100161.03;343064;28;1104;-73
2022/07/02 00:17:54;;;;;;;6.15;2.70;;;;;;;16.01;72.59;100158.47;343515;28;1139;-72
2022/07/02 00:18:06;;;;;;;5.05;2.75;;;;;;;16.00;72.50;100156.75;343198;28;1051;-73
2022/07/02 00:18:19;;;;;;;3.67;2.80;;;;;;;16.01;72.61;100158.47;343024;28;1048;-73
2022/07/02 00:18:31;;;;;;;3.22;2.70;;;;;;;16.00;72.49;100155.00;343320;28;1291;-73
2022/07/02 00:18:44;;;;;;;3.72;2.58;;;;;;;16.00;72.89;100160.25;343340;28;1195;-73
2022/07/02 00:18:56;;;;;;;3.30;2.20;;;;;;;16.01;73.07;100153.22;344364;28;1308;-73
2022/07/02 00:19:08;;;;;;;2.33;2.13;;;;;;;16.04;72.92;100158.34;343435;28;1075;-73
2022/07/02 00:19:22;;;;;;;2.22;2.03;;;;;;;16.05;72.79;100162.66;343189;28;1116;-73
2022/07/02 00:19:36;;;;;;;2.45;1.80;;;;;;;16.06;72.86;100156.50;343330;28;1088;-73
2022/07/02 00:19:49;;;;;;;2.60;1.80;;;;;;;16.06;72.79;100156.50;343249;28;1486;-73
2022/07/02 00:20:02;;;;;;;3.83;1.98;;;;;;;16.07;72.58;100152.94;345195;28;1280;-73
2022/07/02 00:20:14;;;;;;;3.30;1.85;;;;;;;16.07;72.51;100156.41;345872;28;1028;-73
2022/07/02 00:20:26;;;;;;;2.75;1.85;;;;;;;16.07;72.38;100153.78;345906;28;1201;-73
2022/07/02 00:20:40;;;;;;;2.58;1.67;;;;;;;16.09;72.33;100156.34;346358;28;1073;-73
2022/07/02 00:20:52;;;;;;;3.10;1.80;;;;;;;16.07;72.59;100155.56;344934;28;1246;-73
2022/07/02 00:21:04;;;;;;;2.78;1.95;;;;;;;16.07;72.96;100163.41;344730;28;1221;-73
2022/07/02 00:21:18;;;;;;;3.47;2.10;;;;;;;16.07;73.05;100158.19;344908;28;1119;-73
2022/07/02 00:21:30;;;;;;;3.58;2.28;;;;;;;16.06;72.95;100152.09;344846;28;1106;-73
2022/07/02 00:21:42;;;;;;;3.53;2.20;;;;;;;16.06;73.11;100153.88;343785;28;1094;-73
2022/07/02 00:21:54;;;;;;;3.30;2.20;;;;;;;16.08;73.25;100159.91;342486;28;1979;-73
2022/07/02 00:22:07;;;;;;;2.65;2.10;;;;;;;16.07;73.24;100156.41;343260;28;1858;-73
2022/07/02 00:22:19;;;;;;;1.90;1.80;;;;;;;16.07;73.19;100151.16;343144;28;1144;-72
2022/07/02 00:22:32;;;;;;;2.30;1.98;;;;;;;16.09;73.00;100153.72;344047;28;753;-73
2022/07/02 00:22:46;;;;;;;2.90;2.00;;;;;;;16.09;72.87;100156.34;343436;28;1044;-73
2022/07/02 00:22:58;;;;;;;2.53;1.88;;;;;;;16.10;72.74;100152.81;344539;28;1256;-73
2022/07/02 00:23:11;;;;;;;2.13;1.80;;;;;;;16.09;72.51;100158.97;345362;28;784;-73
2022/07/02 00:23:23;;;;;;;2.33;1.80;;;;;;;16.11;72.48;100157.09;344786;28;1276;-73
2022/07/02 00:23:35;;;;;;;2.83;1.80;;;;;;;16.11;72.29;100154.50;344724;28;1254;-73
2022/07/02 00:23:47;;;;;;;3.58;1.80;;;;;;;16.11;72.36;100149.25;345846;28;1079;-73
2022/07/02 00:23:59;;;;;;;4.30;1.83;;;;;;;16.11;72.52;100157.94;346301;28;1332;-72
2022/07/02 00:24:11;;;;;;;4.03;2.00;;;;;;;16.11;72.75;100154.50;346130;28;1164;-72
2022/07/02 00:24:23;;;;;;;4.75;2.10;;;;;;;16.10;72.71;100152.81;345327;28;968;-73
2022/07/02 00:24:39;;;;;;;3.40;2.10;;;;;;;16.10;72.82;100158.88;345167;28;1187;-72
2022/07/02 00:24:52;;;;;;;3.47;2.00;;;;;;;16.10;72.58;100152.81;344984;28;1055;-73
2022/07/02 00:25:05;;;;;;;4.28;2.00;;;;;;;16.07;72.93;100155.56;345008;28;1071;-73
2022/07/02 00:25:17;;;;;;;4.10;2.10;;;;;;;16.04;72.90;100155.72;344867;28;1294;-73
2022/07/02 00:25:37;;;;;;;2.53;2.08;;;;;;;16.06;72.74;100156.50;343860;28;791;-73
2022/07/02 00:26:07;;;;;;;2.20;1.80;;;;;;;16.09;72.39;100158.97;343648;28;1232;-73
2022/07/02 00:26:28;;;;;;;3.60;1.70;;;;;;;16.13;72.44;100157.88;343551;28;1064;-72
2022/07/02 00:26:50;;;;;;;2.50;1.80;;;;;;;16.13;72.43;100163.13;344781;28;1036;-73
2022/07/02 00:27:05;;;;;;;3.85;2.08;;;;;;;16.14;72.39;100154.34;345038;28;1123;-73
2022/07/02 00:27:18;;;;;;;4.28;2.28;;;;;;;16.14;72.57;100151.72;344957;28;1193;-73
2022/07/02 00:27:32;;;;;;;3.83;2.17;;;;;;;16.13;73.01;100152.63;346212;28;824;-73
2022/07/02 00:27:45;;;;;;;2.40;2.00;;;;;;;16.12;72.93;100158.81;346417;28;1919;-73
2022/07/02 00:27:58;;;;;;;2.30;2.10;;;;;;;16.12;72.66;100157.03;346572;28;1080;-73
2022/07/02 00:28:12;;;;;;;3.58;2.10;;;;;;;16.11;72.48;100159.72;346282;28;1114;-73
2022/07/02 00:28:26;;;;;;;4.30;2.10;;;;;;;16.10;72.36;100155.44;346253;28;1050;-72
2022/07/02 00:28:42;;;;;;;4.78;2.00;;;;;;;16.12;72.33;100150.97;345153;28;1160;-72
2022/07/02 00:29:11;;;;;;;4.15;1.88;;;;;;;16.13;72.43;100155.25;344930;28;977;-73
2022/07/02 00:29:37;;;;;;;6.30;1.70;;;;;;;16.14;72.34;100156.97;343885;28;1096;-73
2022/07/02 00:29:59;;;;;;;5.20;1.83;;;;;;;16.15;72.16;100161.28;344868;28;1063;-73
2022/07/02 00:30:14;;;;;;;4.22;2.00;;;;;;;16.18;72.01;100161.16;344827;28;1034;-73
2022/07/02 00:30:26;;;;;;;5.60;1.90;;;;;;;16.17;71.95;100155.03;345044;28;1284;-73
2022/07/02 00:30:40;;;;;;;5.63;1.90;;;;;;;16.18;71.88;100161.16;345172;28;1011;-73
2022/07/02 00:30:52;;;;;;;3.53;1.80;;;;;;;16.17;71.95;100159.44;345022;28;1122;-73
2022/07/02 00:31:05;;;;;;;3.28;1.80;;;;;;;16.17;71.85;100159.44;345081;28;1275;-73
2022/07/02 00:31:18;;;;;;;3.80;1.80;;;;;;;16.18;72.05;100162.00;344209;28;1818;-71
2022/07/02 00:31:31;;;;;;;3.83;1.80;;;;;;;16.17;71.94;100162.06;345077;28;2059;-73
2022/07/02 00:31:43;;;;;;;3.25;1.80;;;;;;;16.17;71.63;100164.69;344873;28;1206;-72
2022/07/02 00:31:57;;;;;;;2.60;1.70;;;;;;;16.15;71.71;100156.03;344853;28;1285;-73
2022/07/02 00:32:10;;;;;;;2.60;1.70;;;;;;;16.16;71.77;100157.75;344880;28;1072;-73
2022/07/02 00:32:27;;;;;;;3.38;1.80;;;;;;;16.17;71.95;100159.44;344468;28;1143;-73
2022/07/02 00:32:41;;;;;;;3.47;1.88;;;;;;;16.15;72.59;100161.28;344991;28;1549;-72
2022/07/02 00:32:53;;;;;;;3.08;1.98;;;;;;;16.16;72.28;100158.59;344809;28;1297;-73
2022/07/02 00:33:08;;;;;;;3.78;2.00;;;;;;;16.13;72.19;100157.88;344855;28;1319;-73
2022/07/02 00:33:24;;;;;;;4.28;1.90;;;;;;;16.13;72.18;100152.63;345557;28;1321;-73
2022/07/02 00:33:37;;;;;;;4.50;1.80;;;;;;;16.13;72.09;100161.34;346110;28;1209;-73
2022/07/02 00:33:49;;;;;;;3.45;1.80;;;;;;;16.13;72.06;100155.25;346561;28;1019;-72
2022/07/02 00:34:01;;;;;;;3.60;1.70;;;;;;;16.11;72.19;100162.34;346496;28;1204;-72
2022/07/02 00:34:15;;;;;;;4.05;1.80;;;;;;;16.10;72.24;100163.28;346227;28;1174;-73
2022/07/02 00:34:28;;;;;;;4.05;1.90;;;;;;;16.07;72.76;100158.19;346454;28;1212;-73
2022/07/02 00:34:44;;;;;;;3.50;2.00;;;;;;;16.05;72.63;100155.63;346157;28;1035;-73
2022/07/02 00:34:57;;;;;;;3.50;2.10;;;;;;;16.04;72.67;100159.19;346743;28;1265;-73
2022/07/02 00:35:13;;;;;;;3.20;2.03;;;;;;;16.02;72.61;100161.03;346325;28;1144;-72
2022/07/02 00:35:25;;;;;;;4.03;1.83;;;;;;;16.03;72.37;100152.22;346348;28;1192;-73
2022/07/02 00:35:38;;;;;;;4.13;1.88;;;;;;;16.05;72.20;100155.63;346387;28;998;-73
2022/07/02 00:35:50;;;;;;;2.90;1.80;;;;;;;16.07;72.30;100161.66;346406;28;1045;-73
2022/07/02 00:36:03;;;;;;;3.65;1.90;;;;;;;16.06;72.55;100151.25;346289;28;1106;-73
2022/07/02 00:36:21;;;;;;;3.78;1.90;;;;;;;16.08;72.39;100159.91;346037;28;1251;-72
2022/07/02 00:36:34;;;;;;;3.05;1.83;;;;;;;16.07;72.40;100153.78;345663;28;1282;-73
2022/07/02 00:36:48;;;;;;;2.83;2.00;;;;;;;16.09;72.26;100166.81;344996;28;1044;-73
2022/07/02 00:37:01;;;;;;;3.00;2.00;;;;;;;16.10;72.15;100160.66;343525;28;1876;-72
2022/07/02 00:37:13;;;;;;;3.60;1.83;;;;;;;16.09;72.32;100156.34;344295;28;1922;-73
2022/07/02 00:37:26;;;;;;;4.10;1.92;;;;;;;16.09;71.98;100158.97;345207;28;1804;-73
2022/07/02 00:37:39;;;;;;;4.28;2.20;;;;;;;16.07;72.36;100153.78;345007;28;1173;-73
2022/07/02 00:37:53;;;;;;;4.72;2.40;;;;;;;16.07;72.81;100158.19;344786;28;1249;-73
2022/07/02 00:38:06;;;;;;;4.15;2.50;;;;;;;16.07;72.90;100155.56;344449;28;1572;-73
2022/07/02 00:38:18;;;;;;;3.83;2.33;;;;;;;16.06;72.57;100156.50;344661;28;1194;-72
2022/07/02 00:38:30;;;;;;;3.63;2.25;;;;;;;16.05;72.50;100160.88;344915;28;1167;-73
2022/07/02 00:38:42;;;;;;;3.63;2.08;;;;;;;16.05;72.31;100154.78;345072;28;1252;-73
2022/07/02 00:38:54;;;;;;;3.28;2.08;;;;;;;16.04;72.39;100158.34;345051;28;1092;-73
2022/07/02 00:39:06;;;;;;;3.50;2.00;;;;;;;16.03;72.54;100154.00;344638;28;1235;-73
2022/07/02 00:39:18;;;;;;;3.42;1.98;;;;;;;16.04;72.47;100153.94;344881;28;1045;-73
2022/07/02 00:39:30;;;;;;;2.67;1.90;;;;;;;16.04;72.41;100153.09;345105;28;1341;-73
2022/07/02 00:39:42;;;;;;;3.53;1.90;;;;;;;16.04;72.21;100160.97;344645;28;1060;-73
2022/07/02 00:39:55;;;;;;;3.90;2.08;;;;;;;16.01;72.34;100158.47;345941;28;1242;-73
2022/07/02 00:40:08;;;;;;;4.47;2.40;;;;;;;16.01;72.07;100159.31;345180;28;1099;-73
2022/07/02 00:40:20;;;;;;;5.32;2.30;;;;;;;15.98;71.70;100156.84;345133;28;1047;-73
2022/07/02 00:40:33;;;;;;;5.93;2.22;;;;;;;15.96;71.50;100156.91;344968;28;1113;-73
2022/07/02 00:40:46;;;;;;;4.60;2.20;;;;;;;15.96;72.44;100158.69;345129;28;1285;-73
2022/07/02 00:41:02;;;;;;;2.53;2.10;;;;;;;15.95;72.58;100149.97;345333;28;1773;-73
2022/07/02 00:41:15;;;;;;;2.15;1.90;;;;;;;15.96;72.41;100156.91;346285;28;1075;-73
2022/07/02 00:41:27;;;;;;;2.83;1.70;;;;;;;15.96;72.41;100154.28;346200;28;1280;-73
2022/07/02 00:41:40;;;;;;;3.70;1.75;;;;;;;15.97;72.37;100152.50;346487;28;1213;-73
2022/07/02 00:41:53;;;;;;;3.33;1.90;;;;;;;15.97;72.59;100155.97;346567;28;964;-73
2022/07/02 00:42:07;;;;;;;3.67;1.90;;;;;;;15.99;72.18;100155.91;346316;28;1019;-73
2022/07/02 00:42:20;;;;;;;3.83;1.98;;;;;;;15.99;72.17;100150.66;346094;28;1349;-73
2022/07/02 00:42:35;;;;;;;2.85;2.08;;;;;;;16.00;72.13;100154.13;346412;28;1208;-73
2022/07/02 00:42:48;;;;;;;4.03;2.15;;;;;;;16.00;72.07;100156.75;346403;28;1334;-73
2022/07/02 00:43:01;;;;;;;4.15;1.90;;;;;;;16.01;71.93;100150.59;346285;28;1234;-73
2022/07/02 00:43:14;;;;;;;3.10;1.80;;;;;;;16.03;71.90;100151.38;347499;28;1135;-73
2022/07/02 00:43:26;;;;;;;3.15;1.90;;;;;;;16.00;72.06;100152.38;347711;28;1299;-73
2022/07/02 00:43:38;;;;;;;3.75;2.00;;;;;;;16.01;72.13;100153.22;347572;28;1017;-73
2022/07/02 00:43:50;;;;;;;4.03;2.00;;;;;;;16.01;71.91;100153.22;347667;28;995;-73
2022/07/02 00:44:05;;;;;;;3.30;1.90;;;;;;;16.01;71.92;100148.81;347621;28;1130;-73
2022/07/02 00:44:18;;;;;;;2.45;1.95;;;;;;;16.04;72.00;100153.94;347605;28;1067;-73
2022/07/02 00:44:31;;;;;;;2.47;1.90;;;;;;;16.04;72.00;100158.34;347557;28;1018;-73
2022/07/02 00:44:45;;;;;;;2.28;1.67;;;;;;;16.04;71.40;100153.09;346644;28;1260;-73
2022/07/02 00:44:58;;;;;;;2.00;1.80;;;;;;;16.04;72.09;100153.94;346177;28;1241;-73
2022/07/02 00:45:10;;;;;;;2.95;1.95;;;;;;;16.04;71.86;100148.69;344939;28;1032;-73
2022/07/02 00:45:22;;;;;;;3.58;2.08;;;;;;;16.04;72.05;100153.09;344827;28;1019;-73
2022/07/02 00:45:35;;;;;;;3.53;2.17;;;;;;;16.02;72.04;100154.91;344929;28;1100;-73
2022/07/02 00:45:48;;;;;;;2.90;2.20;;;;;;;16.02;71.86;100149.66;343981;28;1955;-72
2022/07/02 00:46:00;;;;;;;3.70;2.00;;;;;;;16.04;71.75;100148.69;343404;28;1414;-73
2022/07/02 00:46:14;;;;;;;3.85;2.00;;;;;;;16.05;71.62;100154.78;343764;28;1119;-73
2022/07/02 00:46:28;;;;;;;2.55;1.90;;;;;;;16.06;71.66;100156.50;342262;28;1245;-73
2022/07/02 00:46:42;;;;;;;2.63;1.75;;;;;;;16.06;71.66;100156.50;342526;28;1067;-73
2022/07/02 00:47:06;;;;;;;2.60;1.85;;;;;;;16.07;71.56;100150.31;343245;28;1300;-73
2022/07/02 00:47:23;;;;;;;2.22;1.80;;;;;;;16.07;71.49;100155.56;344979;28;966;-73
2022/07/02 00:47:37;;;;;;;3.65;1.77;;;;;;;16.07;71.46;100158.19;344827;28;1144;-73
2022/07/02 00:47:49;;;;;;;3.58;1.80;;;;;;;16.08;71.61;100154.66;344873;28;1308;-73
2022/07/02 00:48:02;;;;;;;3.05;1.85;;;;;;;16.09;71.75;100156.34;345200;28;1271;-73
2022/07/02 00:48:15;;;;;;;3.28;1.80;;;;;;;16.08;71.48;100152.03;346215;28;1058;-72
2022/07/02 00:48:27;;;;;;;2.75;1.83;;;;;;;16.08;71.45;100149.41;346229;28;1194;-73
2022/07/02 00:48:42;;;;;;;3.25;1.90;;;;;;;16.09;71.43;100151.94;346527;28;1057;-72
2022/07/02 00:48:54;;;;;;;2.80;1.90;;;;;;;16.11;71.48;100157.94;346279;28;992;-72
2022/07/02 00:49:08;;;;;;;2.30;1.90;;;;;;;16.11;71.59;100149.25;346527;28;1138;-73
2022/07/02 00:49:20;;;;;;;2.15;1.95;;;;;;;16.11;71.68;100149.25;346183;28;1016;-73
2022/07/02 00:49:33;;;;;;;2.45;2.00;;;;;;;16.10;71.27;100155.44;346354;28;1175;-73
2022/07/02 00:49:46;;;;;;;3.35;2.10;;;;;;;16.12;71.54;100150.97;344720;28;1211;-73
2022/07/02 00:50:01;;;;;;;3.17;2.07;;;;;;;16.10;71.57;100151.03;345124;28;1167;-73
2022/07/02 00:50:13;;;;;;;3.65;2.20;;;;;;;16.10;71.56;100152.81;344559;28;985;-73
2022/07/02 00:50:26;;;;;;;3.60;2.15;;;;;;;16.11;71.51;100157.09;344976;28;1035;-73
2022/07/02 00:50:38;;;;;;;3.60;1.95;;;;;;;16.10;71.59;100156.28;344894;28;1277;-71
2022/07/02 00:50:50;;;;;;;3.53;1.90;;;;;;;16.10;71.51;100152.81;343632;28;1167;-72
2022/07/02 00:51:02;;;;;;;3.85;2.10;;;;;;;16.09;71.74;100145.84;343510;28;1030;-73
2022/07/02 00:51:14;;;;;;;3.67;2.10;;;;;;;16.08;71.87;100152.88;343359;28;1322;-73
2022/07/02 00:51:27;;;;;;;2.83;1.98;;;;;;;16.09;71.65;100153.72;343559;28;1232;-72
2022/07/02 00:51:39;;;;;;;2.50;2.00;;;;;;;16.10;71.60;100147.56;342195;28;1907;-73
2022/07/02 00:51:51;;;;;;;3.75;2.00;;;;;;;16.10;71.58;100147.56;343438;28;1025;-73
2022/07/02 00:52:04;;;;;;;3.78;2.00;;;;;;;16.09;71.70;100153.72;343660;28;1082;-73
2022/07/02 00:52:17;;;;;;;2.70;1.92;;;;;;;16.10;71.65;100153.66;342975;28;1916;-73
2022/07/02 00:52:29;;;;;;;2.67;1.90;;;;;;;16.11;71.79;100149.25;342979;28;1449;-73
2022/07/02 00:52:41;;;;;;;3.42;1.90;;;;;;;16.09;71.71;100151.94;342301;28;1086;-73
2022/07/02 00:52:53;;;;;;;3.30;1.90;;;;;;;16.10;71.73;100152.81;341554;28;1765;-73
2022/07/02 00:53:05;;;;;;;3.65;2.17;;;;;;;16.08;71.50;100149.41;343473;28;1485;-73
2022/07/02 00:53:17;;;;;;;3.97;2.47;;;;;;;16.07;71.68;100152.94;343614;28;1047;-73
2022/07/02 00:53:29;;;;;;;3.60;2.60;;;;;;;16.07;71.49;100145.91;343576;28;1154;-73
2022/07/02 00:53:41;;;;;;;3.38;2.30;;;;;;;16.07;71.56;100147.69;343636;28;1228;-73
2022/07/02 00:53:53;;;;;;;3.47;2.10;;;;;;;16.06;71.63;100146.84;343619;28;1095;-73
2022/07/02 00:54:05;;;;;;;3.55;2.10;;;;;;;16.05;71.86;100145.13;343596;28;1055;-73
2022/07/02 00:54:17;;;;;;;3.22;2.20;;;;;;;16.05;71.59;100145.13;343198;28;1152;-73
2022/07/02 00:54:30;;;;;;;3.40;2.17;;;;;;;16.06;71.98;100153.88;342253;28;1032;-73
2022/07/02 00:54:42;;;;;;;2.50;1.90;;;;;;;16.06;71.56;100151.25;343443;28;1249;-72
2022/07/02 00:54:55;;;;;;;3.10;1.80;;;;;;;16.06;71.65;100161.75;343776;28;1164;-73
2022/07/02 00:55:07;;;;;;;3.05;1.95;;;;;;;16.07;71.85;100152.94;345092;28;1309;-73
2022/07/02 00:55:19;;;;;;;4.07;2.25;;;;;;;16.04;71.57;100147.84;345001;28;1080;-73
2022/07/02 00:55:31;;;;;;;3.70;2.35;;;;;;;16.02;71.55;100154.91;345114;28;1222;-73
2022/07/02 00:55:43;;;;;;;4.90;2.47;;;;;;;16.04;71.66;100150.47;343603;28;1277;-73
2022/07/02 00:55:56;;;;;;;3.88;2.20;;;;;;;16.02;71.42;100161.03;343597;28;1071;-73
2022/07/02 00:56:08;;;;;;;3.40;1.95;;;;;;;16.02;71.52;100155.78;342537;28;1182;-73
2022/07/02 00:56:21;;;;;;;3.35;1.80;;;;;;;16.03;71.29;100152.22;343256;28;2565;-73
2022/07/02 00:56:33;;;;;;;2.92;1.77;;;;;;;16.04;71.43;100147.84;343466;28;1051;-73
2022/07/02 00:56:46;;;;;;;3.25;1.80;;;;;;;16.04;71.55;100150.47;343786;28;1075;-73
2022/07/02 00:56:58;;;;;;;4.65;1.90;;;;;;;16.03;71.78;100148.75;344052;28;989;-72
2022/07/02 00:57:11;;;;;;;4.93;2.05;;;;;;;16.04;71.82;100153.94;343842;28;1078;-72
2022/07/02 00:57:23;;;;;;;3.13;2.00;;;;;;;16.02;71.85;100144.41;342175;28;1040;-73
2022/07/02 00:57:35;;;;;;;4.35;2.13;;;;;;;16.00;71.92;100152.38;342277;28;1182;-74
2022/07/02 00:57:48;;;;;;;4.85;2.38;;;;;;;16.00;72.22;100151.50;342869;28;1080;-73
2022/07/02 00:58:01;;;;;;;3.75;2.50;;;;;;;16.01;72.20;100147.97;343949;28;866;-73
2022/07/02 00:58:13;;;;;;;2.95;2.33;;;;;;;16.01;72.06;100147.97;342412;28;1218;-72
2022/07/02 00:58:30;;;;;;;2.30;2.05;;;;;;;16.00;71.91;100141.91;341978;28;1323;-73
2022/07/02 00:58:43;;;;;;;2.50;1.98;;;;;;;16.01;71.93;100143.56;341135;29;1049;-73
2022/07/02 00:58:55;;;;;;;4.18;2.00;;;;;;;16.02;71.90;100149.66;340927;29;1198;-73
2022/07/02 00:59:07;;;;;;;4.78;2.22;;;;;;;16.04;71.95;100153.09;339659;29;1109;-73
2022/07/02 00:59:23;;;;;;;4.10;2.25;;;;;;;16.05;71.82;100149.53;341063;29;1063;-73
2022/07/02 00:59:36;;;;;;;2.63;1.98;;;;;;;16.02;72.17;100147.03;342077;28;1036;-73
2022/07/02 00:59:48;;;;;;;3.47;2.20;;;;;;;16.04;72.28;100150.47;342268;28;1020;-73
2022/07/02 01:00:00;;;;;;;3.10;2.10;;;;;;;16.03;72.40;100148.75;341980;28;1030;-73
2022/07/02 01:00:17;;;;;;;2.78;2.00;;;;;;;16.02;72.28;100149.66;341446;28;1879;-73
2022/07/02 01:00:31;;;;;;;2.92;2.10;;;;;;;16.02;71.95;100144.41;342165;28;1256;-73
2022/07/02 01:00:43;;;;;;;2.67;2.10;;;;;;;16.01;71.95;100151.44;342302;28;1024;-73
2022/07/02 01:00:55;;;;;;;2.40;2.20;;;;;;;16.00;71.98;100148.88;342261;28;1356;-73
2022/07/02 01:01:07;;;;;;;3.30;2.40;;;;;;;15.98;72.07;100155.06;344314;28;740;-73
2022/07/02 01:01:19;;;;;;;3.72;2.33;;;;;;;15.99;72.09;100153.28;343487;28;1245;-73
2022/07/02 01:01:32;;;;;;;4.40;2.30;;;;;;;15.99;72.14;100150.66;343580;28;1283;-73
2022/07/02 01:01:44;;;;;;;3.80;2.15;;;;;;;16.00;71.97;100152.38;343372;28;1315;-72
2022/07/02 01:01:57;;;;;;;2.55;2.03;;;;;;;16.00;72.04;100156.75;343499;28;1236;-73
2022/07/02 01:02:09;;;;;;;3.60;2.08;;;;;;;16.01;71.89;100150.59;345001;28;1075;-73
2022/07/02 01:02:22;;;;;;;4.10;2.17;;;;;;;16.02;71.94;100152.28;345818;28;1069;-73
2022/07/02 01:02:36;;;;;;;3.17;2.10;;;;;;;16.02;71.95;100149.66;344610;28;1016;-72
2022/07/02 01:02:49;;;;;;;2.95;2.20;;;;;;;16.04;72.02;100153.09;344622;28;1367;-73
2022/07/02 01:03:02;;;;;;;3.05;2.30;;;;;;;16.04;71.91;100143.44;344123;28;1392;-73
2022/07/02 01:03:17;;;;;;;2.38;2.10;;;;;;;16.04;72.20;100148.69;343331;28;1023;-73
2022/07/02 01:03:30;;;;;;;2.40;2.00;;;;;;;16.05;72.25;100150.38;343669;28;1194;-73
2022/07/02 01:03:45;;;;;;;2.50;2.10;;;;;;;16.04;72.21;100158.34;343595;28;1454;-72
2022/07/02 01:04:01;;;;;;;2.83;1.95;;;;;;;16.01;71.89;100146.19;343682;28;1248;-73
2022/07/02 01:04:15;;;;;;;3.35;2.17;;;;;;;16.02;71.63;100147.03;343597;28;1174;-73
2022/07/02 01:04:31;;;;;;;3.63;2.47;;;;;;;16.01;71.59;100147.97;343588;28;1067;-73
2022/07/02 01:04:44;;;;;;;5.00;2.58;;;;;;;15.98;71.58;100148.97;343493;28;1384;-73